createdAt,value
2022-10-05T00:01:54.241Z,9.10
2022-10-05T00:04:25.612Z,9.10
2022-10-05T00:07:14.307Z,9.10
2022-10-05T00:09:47.019Z,9.00
2022-10-05T00:12:18.097Z,8.90
2022-10-05T00:14:52.212Z,9.00
2022-10-05T00:17:23.822Z,9.00
2022-10-05T00:19:57.734Z,9.00
2022-10-05T00:22:33.817Z,9.00
2022-10-05T00:25:12.985Z,8.90
2022-10-05T00:27:41.640Z,9.00
2022-10-05T00:30:18.558Z,8.90
2022-10-05T00:32:52.257Z,8.90
2022-10-05T00:35:23.516Z,8.90
2022-10-05T00:37:57.305Z,8.90
2022-10-05T00:40:52.454Z,8.80
2022-10-05T00:43:36.235Z,8.70
2022-10-05T00:46:12.406Z,8.80
2022-10-05T00:48:53.149Z,8.80
2022-10-05T00:51:29.906Z,8.90
2022-10-05T00:54:21.296Z,9.00
2022-10-05T00:57:09.057Z,9.00
2022-10-05T00:59:52.835Z,9.10
2022-10-05T01:02:32.980Z,9.20
2022-10-05T01:05:14.175Z,9.10
2022-10-05T01:07:51.075Z,9.10
2022-10-05T01:10:28.155Z,9.10
2022-10-05T01:13:05.192Z,9.00
2022-10-05T01:15:40.565Z,8.90
2022-10-05T01:18:15.488Z,8.90
2022-10-05T01:20:54.928Z,8.90
2022-10-05T01:24:00.179Z,8.90
2022-10-05T01:26:54.539Z,8.80
2022-10-05T01:29:29.877Z,8.70
2022-10-05T01:32:07.015Z,8.70
2022-10-05T01:34:43.978Z,8.70
2022-10-05T01:37:17.746Z,8.60
2022-10-05T01:39:58.780Z,8.60
2022-10-05T01:42:59.957Z,8.60
2022-10-05T01:45:46.559Z,8.60
2022-10-05T01:48:26.588Z,8.70
2022-10-05T01:51:04.940Z,8.80
2022-10-05T01:53:45.128Z,8.80
2022-10-05T01:56:22.504Z,8.80
2022-10-05T01:59:02.040Z,8.80
2022-10-05T02:01:37.399Z,8.70
2022-10-05T02:04:11.722Z,8.60
2022-10-05T02:06:47.451Z,8.50
2022-10-05T02:09:19.594Z,8.50
2022-10-05T02:11:55.096Z,8.50
2022-10-05T02:14:28.232Z,8.50
2022-10-05T02:17:03.468Z,8.40
2022-10-05T02:19:39.500Z,8.50
2022-10-05T02:22:11.586Z,8.60
2022-10-05T02:24:43.416Z,8.70
2022-10-05T02:27:15.031Z,8.70
2022-10-05T02:29:47.606Z,8.70
2022-10-05T02:32:26.687Z,8.70
2022-10-05T02:37:54.322Z,8.70
2022-10-05T02:40:36.103Z,8.70
2022-10-05T02:43:15.338Z,8.70
2022-10-05T02:45:54.822Z,8.70
2022-10-05T02:48:38.744Z,8.70
2022-10-05T02:51:16.442Z,8.70
2022-10-05T02:53:59.244Z,8.70
2022-10-05T02:59:23.427Z,8.50
2022-10-05T03:01:57.191Z,8.50
2022-10-05T03:04:39.989Z,8.50
2022-10-05T03:07:18.687Z,8.50
2022-10-05T03:10:01.035Z,8.40
2022-10-05T03:13:06.482Z,8.40
2022-10-05T03:16:10.687Z,8.30
2022-10-05T03:18:52.311Z,8.30
2022-10-05T03:21:35.811Z,8.20
2022-10-05T03:24:22.494Z,8.30
2022-10-05T03:27:04.485Z,8.30
2022-10-05T03:32:42.120Z,8.20
2022-10-05T03:35:19.674Z,8.00
2022-10-05T03:38:23.706Z,8.00
2022-10-05T03:41:05.555Z,8.00
2022-10-05T03:47:37.533Z,7.90
2022-10-05T03:50:40.265Z,7.80
2022-10-05T03:56:50.009Z,7.80
2022-10-05T03:59:22.861Z,7.80
2022-10-05T04:02:32.966Z,7.80
2022-10-05T04:05:31.141Z,7.80
2022-10-05T04:08:15.794Z,7.80
2022-10-05T04:11:05.187Z,7.80
2022-10-05T04:13:41.001Z,7.80
2022-10-05T04:16:15.532Z,7.70
2022-10-05T04:18:49.752Z,7.70
2022-10-05T04:21:25.124Z,7.70
2022-10-05T04:24:03.537Z,7.70
2022-10-05T04:26:46.174Z,7.80
2022-10-05T04:29:23.920Z,7.80
2022-10-05T04:32:40.604Z,7.70
2022-10-05T04:35:53.717Z,7.70
2022-10-05T04:39:12.676Z,7.70
2022-10-05T04:42:07.544Z,7.60
2022-10-05T04:45:02.981Z,7.60
2022-10-05T04:48:09.777Z,7.60
2022-10-05T04:54:26.905Z,7.60
2022-10-05T04:57:03.259Z,7.60
2022-10-05T05:00:19.574Z,7.60
2022-10-05T05:03:06.472Z,7.50
2022-10-05T05:06:16.358Z,7.50
2022-10-05T05:13:04.382Z,7.50
2022-10-05T05:19:24.238Z,7.50
2022-10-05T05:22:21.325Z,7.40
2022-10-05T05:25:24.103Z,7.40
2022-10-05T05:32:12.293Z,7.40
2022-10-05T05:42:14.155Z,7.40
2022-10-05T05:45:15.981Z,7.40
2022-10-05T05:48:05.787Z,7.40
2022-10-05T05:51:03.040Z,7.40
2022-10-05T05:53:45.922Z,7.50
2022-10-05T06:03:02.267Z,7.60
2022-10-05T06:05:35.181Z,7.70
2022-10-05T06:08:19.251Z,7.80
2022-10-05T06:13:52.619Z,7.90
2022-10-05T06:16:25.634Z,8.00
2022-10-05T06:18:58.597Z,8.20
2022-10-05T06:21:37.660Z,8.30
2022-10-05T06:24:15.473Z,8.30
2022-10-05T06:27:16.727Z,8.50
2022-10-05T06:29:58.064Z,8.70
2022-10-05T06:32:32.605Z,8.80
2022-10-05T06:35:13.587Z,8.90
2022-10-05T06:38:10.274Z,9.00
2022-10-05T06:44:26.751Z,9.20
2022-10-05T06:47:17.200Z,9.10
2022-10-05T06:52:47.061Z,9.40
2022-10-05T06:55:28.333Z,9.70
2022-10-05T06:58:28.542Z,9.80
2022-10-05T07:01:05.474Z,9.90
2022-10-05T07:03:46.680Z,10.00
2022-10-05T07:06:18.307Z,10.20
2022-10-05T07:09:15.676Z,10.30
2022-10-05T07:12:09.199Z,10.50
2022-10-05T07:15:09.621Z,10.40
2022-10-05T07:18:20.443Z,10.50
2022-10-05T07:21:01.877Z,10.50
2022-10-05T07:23:59.720Z,10.50
2022-10-05T07:27:02.479Z,10.60
2022-10-05T07:29:47.012Z,10.70
2022-10-05T07:32:29.078Z,10.70
2022-10-05T07:35:07.631Z,10.80
2022-10-05T07:38:12.084Z,10.70
2022-10-05T07:41:39.185Z,10.80
2022-10-05T07:44:26.388Z,11.00
2022-10-05T07:47:10.947Z,11.20
2022-10-05T07:49:51.384Z,11.20
2022-10-05T07:52:39.407Z,11.30
2022-10-05T08:02:44.576Z,11.70
2022-10-05T08:08:46.538Z,11.80
2022-10-05T08:11:21.148Z,12.00
2022-10-05T08:13:55.921Z,12.00
2022-10-05T08:16:29.399Z,12.10
2022-10-05T08:19:03.158Z,12.10
2022-10-05T08:21:43.893Z,12.20
2022-10-05T08:24:49.068Z,12.70
2022-10-05T08:27:27.219Z,12.70
2022-10-05T08:30:01.434Z,12.90
2022-10-05T08:32:37.126Z,12.90
2022-10-05T08:35:25.954Z,12.80
2022-10-05T08:38:03.117Z,13.50
2022-10-05T08:41:28.232Z,13.80
2022-10-05T08:44:25.606Z,14.60
2022-10-05T08:47:32.882Z,16.60
2022-10-05T08:50:25.518Z,17.40
2022-10-05T08:54:15.032Z,16.40
2022-10-05T09:03:24.470Z,14.40
2022-10-05T09:06:20.203Z,14.70
2022-10-05T09:13:54.629Z,14.00
2022-10-05T09:17:05.740Z,14.00
2022-10-05T09:19:50.649Z,14.40
2022-10-05T09:22:53.442Z,14.60
2022-10-05T09:25:55.467Z,14.50
2022-10-05T09:28:35.649Z,14.20
2022-10-05T09:32:02.377Z,14.10
2022-10-05T09:34:58.185Z,14.80
2022-10-05T09:38:22.212Z,15.00
2022-10-05T09:41:27.864Z,14.60
2022-10-05T09:44:53.657Z,14.50
2022-10-05T09:48:06.618Z,14.70
2022-10-05T09:51:23.958Z,14.80
2022-10-05T09:54:23.659Z,15.10
2022-10-05T10:00:58.752Z,14.90
2022-10-05T10:04:15.444Z,15.30
2022-10-05T10:14:22.226Z,15.50
2022-10-05T10:17:19.519Z,15.40
2022-10-05T10:20:53.349Z,15.70
2022-10-05T10:24:28.930Z,15.80
2022-10-05T10:27:30.716Z,15.80
2022-10-05T10:30:41.024Z,16.00
2022-10-05T10:33:28.485Z,15.50
2022-10-05T10:36:06.253Z,15.70
2022-10-05T10:38:55.112Z,15.90
2022-10-05T10:42:00.964Z,16.20
2022-10-05T10:48:52.976Z,16.70
2022-10-05T10:52:17.931Z,16.70
2022-10-05T10:55:49.908Z,16.80
2022-10-05T10:59:02.362Z,16.50
2022-10-05T11:01:38.583Z,16.80
2022-10-05T11:04:30.211Z,16.70
2022-10-05T11:07:55.860Z,16.50
2022-10-05T11:11:14.722Z,16.90
2022-10-05T11:14:16.285Z,16.50
2022-10-05T11:17:17.121Z,16.30
2022-10-05T11:20:09.888Z,16.60
2022-10-05T11:23:39.064Z,16.90
2022-10-05T11:27:18.693Z,17.10
2022-10-05T11:30:50.468Z,17.10
2022-10-05T11:33:50.967Z,17.10
2022-10-05T11:37:22.411Z,17.20
2022-10-05T11:51:10.147Z,17.50
2022-10-05T12:00:30.527Z,17.80
2022-10-05T12:03:34.115Z,17.90
2022-10-05T12:06:51.451Z,18.20
2022-10-05T12:10:19.170Z,18.50
2022-10-05T12:13:38.807Z,18.20
2022-10-05T12:16:19.796Z,18.20
2022-10-05T12:25:50.113Z,18.10
2022-10-05T12:28:28.823Z,18.30
2022-10-05T12:31:26.904Z,18.50
2022-10-05T12:34:04.007Z,18.30
2022-10-05T12:37:03.663Z,18.60
2022-10-05T12:39:48.236Z,18.80
2022-10-05T12:42:41.534Z,18.70
2022-10-05T12:49:26.065Z,18.70
2022-10-05T12:58:12.770Z,18.70
2022-10-05T13:00:48.548Z,18.80
2022-10-05T13:03:25.512Z,18.90
2022-10-05T13:06:03.475Z,18.90
2022-10-05T13:08:43.411Z,19.30
2022-10-05T13:11:26.033Z,18.90
2022-10-05T13:14:05.443Z,19.00
2022-10-05T13:16:55.142Z,19.00
2022-10-05T13:23:23.874Z,19.10
2022-10-05T13:31:13.798Z,18.90
2022-10-05T13:34:12.781Z,19.10
2022-10-05T13:54:44.111Z,19.10
2022-10-05T13:57:45.255Z,18.80
2022-10-05T14:00:27.432Z,18.80
2022-10-05T14:03:03.587Z,18.90
2022-10-05T14:05:38.179Z,19.00
2022-10-05T14:08:20.321Z,19.10
2022-10-05T14:10:49.773Z,18.90
2022-10-05T14:16:24.409Z,18.60
2022-10-05T14:19:22.606Z,18.50
2022-10-05T14:22:02.598Z,18.70
2022-10-05T14:32:00.300Z,18.70
2022-10-05T14:38:18.751Z,18.70
2022-10-05T14:40:56.743Z,18.60
2022-10-05T14:43:32.072Z,18.70
2022-10-05T14:46:25.329Z,18.70
2022-10-05T14:49:33.304Z,18.70
2022-10-05T14:52:43.327Z,18.70
2022-10-05T14:55:39.984Z,18.70
2022-10-05T14:58:25.035Z,18.70
2022-10-05T15:01:21.733Z,18.70
2022-10-05T15:04:12.622Z,18.60
2022-10-05T15:07:04.222Z,18.70
2022-10-05T15:17:00.138Z,18.70
2022-10-05T15:20:14.100Z,18.70
2022-10-05T15:23:34.727Z,18.60
2022-10-05T15:26:31.465Z,18.60
2022-10-05T15:29:06.547Z,18.70
2022-10-05T15:31:55.469Z,18.50
2022-10-05T15:34:40.169Z,18.50
2022-10-05T15:37:42.120Z,18.40
2022-10-05T15:40:27.972Z,18.40
2022-10-05T15:43:16.076Z,18.30
2022-10-05T15:46:06.039Z,18.40
2022-10-05T15:48:47.169Z,18.20
2022-10-05T15:51:51.944Z,18.10
2022-10-05T15:54:50.719Z,18.10
2022-10-05T16:01:08.341Z,18.10
2022-10-05T16:03:50.657Z,18.00
2022-10-05T16:10:21.026Z,17.80
2022-10-05T16:13:14.120Z,18.00
2022-10-05T16:19:58.276Z,17.90
2022-10-05T16:22:33.249Z,17.70
2022-10-05T16:25:11.322Z,17.50
2022-10-05T16:28:04.572Z,17.70
2022-10-05T16:30:47.955Z,17.60
2022-10-05T16:33:30.405Z,17.60
2022-10-05T16:36:12.868Z,17.50
2022-10-05T16:38:47.880Z,17.40
2022-10-05T16:47:39.889Z,17.30
2022-10-05T16:50:23.536Z,17.20
2022-10-05T16:53:03.435Z,17.20
2022-10-05T16:55:39.465Z,17.20
2022-10-05T16:58:20.247Z,17.10
2022-10-05T17:01:14.939Z,17.00
2022-10-05T17:04:03.861Z,16.90
2022-10-05T17:07:08.755Z,16.80
2022-10-05T17:13:40.818Z,16.60
2022-10-05T17:16:19.159Z,16.40
2022-10-05T17:19:20.420Z,16.20
2022-10-05T17:28:42.845Z,15.90
2022-10-05T17:37:54.549Z,16.20
2022-10-05T17:40:36.482Z,16.10
2022-10-05T17:43:25.303Z,16.00
2022-10-05T17:46:21.200Z,16.10
2022-10-05T17:49:33.070Z,16.00
2022-10-05T17:52:25.242Z,15.90
2022-10-05T17:55:30.997Z,15.90
2022-10-05T17:58:21.898Z,15.80
2022-10-05T18:01:14.769Z,15.80
2022-10-05T18:03:49.362Z,15.80
2022-10-05T18:06:40.309Z,15.70
2022-10-05T18:09:38.363Z,15.70
2022-10-05T18:12:46.998Z,15.60
2022-10-05T18:18:59.522Z,15.50
2022-10-05T18:22:06.105Z,15.50
2022-10-05T18:25:09.865Z,15.50
2022-10-05T18:28:38.696Z,15.30
2022-10-05T18:31:29.036Z,15.30
2022-10-05T18:34:21.686Z,15.20
2022-10-05T18:37:26.511Z,15.10
2022-10-05T18:40:13.486Z,15.10
2022-10-05T18:43:42.112Z,15.10
2022-10-05T18:46:37.401Z,15.00
2022-10-05T18:49:31.675Z,14.90
2022-10-05T18:52:22.283Z,14.90
2022-10-05T18:58:32.428Z,14.80
2022-10-05T19:05:23.595Z,14.80
2022-10-05T19:08:08.946Z,14.80
2022-10-05T19:10:45.614Z,14.70
2022-10-05T19:13:33.254Z,14.80
2022-10-05T19:16:21.690Z,14.70
2022-10-05T19:19:15.803Z,14.70
2022-10-05T19:22:18.601Z,14.70
2022-10-05T19:25:07.950Z,14.70
2022-10-05T19:27:50.747Z,14.70
2022-10-05T19:30:23.844Z,14.60
2022-10-05T19:33:15.494Z,14.70
2022-10-05T19:35:58.762Z,14.60
2022-10-05T19:45:44.356Z,14.70
2022-10-05T19:48:26.557Z,14.80
2022-10-05T19:50:57.507Z,15.00
2022-10-05T19:53:27.877Z,14.90
2022-10-05T19:55:58.172Z,15.00
2022-10-05T19:58:28.625Z,15.20
2022-10-05T20:00:59.537Z,15.30
2022-10-05T20:03:29.248Z,15.30
2022-10-05T20:05:59.300Z,15.30
2022-10-05T20:08:41.114Z,15.50
2022-10-05T20:11:14.242Z,15.50
2022-10-05T20:13:44.426Z,15.60
2022-10-05T20:20:00.216Z,15.60
2022-10-05T20:22:34.340Z,15.50
2022-10-05T20:25:05.821Z,15.60
2022-10-05T20:27:45.202Z,15.70
2022-10-05T20:30:15.458Z,15.70
2022-10-05T20:32:49.122Z,15.80
2022-10-05T20:35:18.321Z,15.80
2022-10-05T20:37:50.159Z,15.70
2022-10-05T20:40:19.969Z,15.80
2022-10-05T20:43:03.112Z,15.80
2022-10-05T20:49:20.387Z,15.60
2022-10-05T20:51:53.491Z,15.70
2022-10-05T20:54:21.763Z,15.70
2022-10-05T20:56:50.705Z,15.70
2022-10-05T20:59:20.902Z,15.70
2022-10-05T21:01:49.364Z,15.60
2022-10-05T21:04:19.303Z,15.50
2022-10-05T21:06:48.248Z,15.40
2022-10-05T21:09:22.388Z,15.40
2022-10-05T21:11:56.644Z,15.50
2022-10-05T21:14:41.792Z,15.40
2022-10-05T21:17:12.533Z,15.30
2022-10-05T21:19:44.192Z,15.40
2022-10-05T21:22:16.177Z,15.40
2022-10-05T21:24:45.882Z,15.30
2022-10-05T21:27:30.243Z,15.40
2022-10-05T21:30:04.335Z,15.40
2022-10-05T21:32:38.566Z,15.40
2022-10-05T21:35:20.272Z,15.20
2022-10-05T21:37:52.022Z,15.10
2022-10-05T21:40:20.524Z,15.20
2022-10-05T21:42:48.717Z,15.10
2022-10-05T21:45:18.791Z,15.10
2022-10-05T21:47:47.825Z,14.90
2022-10-05T21:50:18.965Z,14.90
2022-10-05T21:53:17.407Z,14.90
2022-10-05T21:56:10.397Z,14.80
2022-10-05T21:58:55.968Z,14.90
2022-10-05T22:01:36.187Z,15.00
2022-10-05T22:04:12.892Z,14.80
2022-10-05T22:06:42.182Z,14.80
2022-10-05T22:09:14.115Z,14.70
2022-10-05T22:11:49.527Z,14.50
2022-10-05T22:14:19.003Z,14.40
2022-10-05T22:17:13.696Z,14.50
2022-10-05T22:19:44.930Z,14.50
2022-10-05T22:22:15.366Z,14.50
2022-10-05T22:24:44.067Z,14.50
2022-10-05T22:27:12.681Z,14.50
2022-10-05T22:29:41.238Z,14.40
2022-10-05T22:32:10.910Z,14.30
2022-10-05T22:34:39.328Z,14.40
2022-10-05T22:37:08.127Z,14.50
2022-10-05T22:39:38.091Z,14.50
2022-10-05T22:42:07.093Z,14.40
2022-10-05T22:44:44.082Z,14.40
2022-10-05T22:47:15.111Z,14.40
2022-10-05T22:49:44.965Z,14.40
2022-10-05T22:52:13.207Z,14.30
2022-10-05T22:54:42.137Z,14.20
2022-10-05T22:57:10.345Z,14.20
2022-10-05T22:59:38.597Z,14.20
2022-10-05T23:02:07.062Z,14.30
2022-10-05T23:04:36.740Z,14.20
2022-10-05T23:07:05.006Z,14.30
2022-10-05T23:09:33.413Z,14.20
2022-10-05T23:12:01.717Z,14.20
2022-10-05T23:14:30.912Z,14.20
2022-10-05T23:16:59.799Z,14.10
2022-10-05T23:19:28.113Z,14.10
2022-10-05T23:21:57.740Z,14.20
2022-10-05T23:24:25.962Z,14.00
2022-10-05T23:26:54.196Z,14.10
2022-10-05T23:29:22.418Z,14.10
2022-10-05T23:31:50.676Z,14.10
2022-10-05T23:34:18.867Z,14.10
2022-10-05T23:36:47.070Z,14.20
2022-10-05T23:39:16.914Z,14.00
2022-10-05T23:41:45.100Z,13.90
2022-10-05T23:44:13.316Z,13.90
2022-10-05T23:46:41.620Z,13.80
2022-10-05T23:49:17.350Z,13.90
2022-10-05T23:51:45.722Z,13.80
2022-10-05T23:54:13.957Z,13.80
2022-10-05T23:56:43.864Z,13.80
2022-10-05T23:59:12.231Z,13.90
